createdAt,value
2023-05-08T00:00:21.077Z,0.00
2023-05-08T00:01:21.149Z,0.00
2023-05-08T00:02:21.356Z,0.00
2023-05-08T00:03:21.479Z,0.00
2023-05-08T00:04:21.544Z,0.00
2023-05-08T00:05:21.627Z,0.00
2023-05-08T00:06:21.673Z,0.00
2023-05-08T00:07:21.763Z,0.00
2023-05-08T00:08:21.829Z,0.00
2023-05-08T00:09:21.953Z,0.00
2023-05-08T00:10:21.991Z,0.00
2023-05-08T00:11:22.078Z,0.00
2023-05-08T00:12:22.172Z,0.00
2023-05-08T00:13:22.367Z,0.00
2023-05-08T00:14:22.337Z,0.00
2023-05-08T00:15:22.402Z,0.00
2023-05-08T00:16:22.538Z,0.00
2023-05-08T00:17:22.626Z,0.00
2023-05-08T00:18:22.692Z,0.00
2023-05-08T00:19:22.791Z,0.00
2023-05-08T00:20:22.868Z,0.00
2023-05-08T00:21:22.946Z,0.00
2023-05-08T00:22:23.040Z,0.00
2023-05-08T00:23:23.141Z,0.00
2023-05-08T00:24:23.260Z,0.00
2023-05-08T00:25:23.340Z,0.00
2023-05-08T00:26:23.416Z,0.00
2023-05-08T00:27:23.495Z,0.00
2023-05-08T00:28:23.602Z,0.00
2023-05-08T00:29:23.697Z,0.00
2023-05-08T00:30:23.781Z,0.00
2023-05-08T00:31:23.857Z,0.00
2023-05-08T00:32:24.025Z,0.00
2023-05-08T00:33:24.094Z,0.00
2023-05-08T00:34:24.187Z,0.00
2023-05-08T00:35:24.268Z,0.00
2023-05-08T00:36:24.353Z,0.00
2023-05-08T00:37:24.476Z,0.00
2023-05-08T00:38:24.537Z,0.00
2023-05-08T00:39:24.642Z,0.00
2023-05-08T00:40:24.772Z,0.00
2023-05-08T00:41:24.850Z,0.00
2023-05-08T00:42:24.938Z,0.00
2023-05-08T00:43:25.034Z,0.00
2023-05-08T00:44:25.119Z,0.00
2023-05-08T00:45:25.192Z,0.00
2023-05-08T00:46:25.316Z,0.00
2023-05-08T00:47:25.386Z,0.00
2023-05-08T00:48:25.489Z,0.00
2023-05-08T00:49:25.555Z,0.00
2023-05-08T00:50:25.654Z,0.00
2023-05-08T00:51:25.726Z,0.00
2023-05-08T00:52:25.830Z,0.00
2023-05-08T00:53:25.918Z,0.00
2023-05-08T00:54:26.009Z,0.00
2023-05-08T00:55:26.107Z,0.00
2023-05-08T00:56:26.183Z,0.00
2023-05-08T00:57:26.281Z,0.00
2023-05-08T00:58:26.368Z,0.00
2023-05-08T00:59:26.483Z,0.00
2023-05-08T01:00:26.587Z,0.00
2023-05-08T01:01:26.710Z,0.00
2023-05-08T01:02:26.848Z,0.00
2023-05-08T01:03:26.975Z,0.00
2023-05-08T01:04:27.054Z,0.00
2023-05-08T01:05:27.149Z,0.00
2023-05-08T01:06:27.262Z,0.00
2023-05-08T01:07:27.361Z,0.00
2023-05-08T01:08:27.456Z,0.00
2023-05-08T01:09:27.562Z,0.00
2023-05-08T01:10:27.644Z,0.00
2023-05-08T01:11:27.848Z,0.00
2023-05-08T01:12:27.937Z,0.00
2023-05-08T01:13:28.027Z,0.00
2023-05-08T01:14:28.114Z,0.00
2023-05-08T01:15:28.227Z,0.00
2023-05-08T01:16:28.497Z,0.00
2023-05-08T01:17:28.423Z,0.00
2023-05-08T01:18:28.530Z,0.00
2023-05-08T01:19:28.636Z,0.00
2023-05-08T01:20:28.721Z,0.00
2023-05-08T01:21:28.811Z,0.00
2023-05-08T01:22:28.912Z,0.00
2023-05-08T01:23:28.999Z,0.00
2023-05-08T01:24:29.106Z,0.00
2023-05-08T01:25:29.201Z,0.00
2023-05-08T01:26:29.297Z,0.00
2023-05-08T01:27:29.423Z,0.00
2023-05-08T01:28:29.510Z,0.00
2023-05-08T01:29:29.631Z,0.00
2023-05-08T01:30:29.759Z,0.00
2023-05-08T01:31:29.866Z,0.00
2023-05-08T01:32:30.046Z,0.00
2023-05-08T01:33:30.139Z,0.00
2023-05-08T01:34:30.240Z,0.00
2023-05-08T01:35:30.328Z,0.00
2023-05-08T01:36:30.435Z,0.00
2023-05-08T01:37:30.600Z,0.00
2023-05-08T01:38:30.663Z,0.00
2023-05-08T01:39:30.790Z,0.00
2023-05-08T01:40:30.873Z,0.00
2023-05-08T01:41:31.029Z,0.00
2023-05-08T01:42:31.104Z,0.00
2023-05-08T01:43:31.198Z,0.00
2023-05-08T01:44:31.304Z,0.00
2023-05-08T01:45:31.415Z,0.00
2023-05-08T01:46:32.540Z,0.00
2023-05-08T01:47:31.618Z,0.00
2023-05-08T01:48:31.728Z,0.00
2023-05-08T01:49:31.972Z,0.00
2023-05-08T01:50:31.887Z,0.00
2023-05-08T01:51:32.032Z,0.00
2023-05-08T01:52:32.122Z,0.00
2023-05-08T01:53:32.209Z,0.00
2023-05-08T01:54:32.343Z,0.00
2023-05-08T01:55:32.415Z,0.00
2023-05-08T01:56:32.523Z,0.00
2023-05-08T01:57:32.645Z,0.00
2023-05-08T01:58:32.740Z,0.00
2023-05-08T01:59:32.844Z,0.00
2023-05-08T02:00:32.985Z,0.00
2023-05-08T02:01:33.065Z,0.00
2023-05-08T02:02:33.233Z,0.00
2023-05-08T02:03:33.504Z,0.00
2023-05-08T02:04:33.498Z,0.00
2023-05-08T02:05:33.586Z,0.00
2023-05-08T02:06:33.715Z,0.00
2023-05-08T02:07:33.823Z,0.00
2023-05-08T02:08:33.909Z,0.00
2023-05-08T02:09:34.031Z,0.00
2023-05-08T02:10:34.122Z,0.00
2023-05-08T02:11:34.218Z,0.00
2023-05-08T02:12:34.339Z,0.00
2023-05-08T02:13:34.465Z,0.00
2023-05-08T02:14:34.579Z,0.00
2023-05-08T02:15:34.678Z,0.00
2023-05-08T02:16:34.845Z,0.00
2023-05-08T02:17:34.951Z,0.00
2023-05-08T02:18:35.008Z,0.00
2023-05-08T02:19:35.159Z,0.00
2023-05-08T02:20:35.260Z,0.00
2023-05-08T02:21:35.361Z,0.00
2023-05-08T02:22:35.493Z,0.00
2023-05-08T02:23:35.578Z,0.00
2023-05-08T02:24:35.684Z,0.00
2023-05-08T02:25:35.779Z,0.00
2023-05-08T02:26:35.866Z,0.00
2023-05-08T02:27:35.972Z,0.00
2023-05-08T02:28:36.108Z,0.00
2023-05-08T02:29:36.211Z,0.00
2023-05-08T02:30:36.318Z,0.00
2023-05-08T02:31:36.414Z,0.00
2023-05-08T02:32:36.502Z,0.00
2023-05-08T02:33:36.703Z,0.00
2023-05-08T02:34:38.071Z,0.00
2023-05-08T02:35:36.971Z,0.00
2023-05-08T02:36:37.075Z,0.00
2023-05-08T02:37:37.163Z,0.00
2023-05-08T02:38:37.262Z,0.00
2023-05-08T02:39:37.397Z,0.00
2023-05-08T02:40:37.497Z,0.00
2023-05-08T02:41:37.628Z,0.00
2023-05-08T02:42:37.731Z,0.00
2023-05-08T02:43:37.849Z,0.00
2023-05-08T02:44:37.965Z,0.00
2023-05-08T02:45:38.278Z,0.00
2023-05-08T02:46:38.271Z,4.00
2023-05-08T02:47:38.319Z,4.00
2023-05-08T02:48:38.372Z,4.00
2023-05-08T02:49:38.514Z,0.00
2023-05-08T02:50:38.645Z,4.00
2023-05-08T02:51:38.773Z,4.00
2023-05-08T02:52:38.915Z,4.00
2023-05-08T02:53:39.037Z,4.00
2023-05-08T02:54:39.209Z,8.00
2023-05-08T02:55:39.321Z,4.00
2023-05-08T02:56:39.441Z,8.00
2023-05-08T02:57:39.598Z,8.00
2023-05-08T02:58:39.671Z,8.00
2023-05-08T02:59:39.806Z,12.00
2023-05-08T03:00:39.898Z,16.00
2023-05-08T03:01:40.011Z,16.00
2023-05-08T03:02:40.216Z,20.00
2023-05-08T03:03:40.358Z,20.00
2023-05-08T03:04:40.402Z,20.00
2023-05-08T03:05:40.504Z,28.00
2023-05-08T03:06:40.592Z,28.00
2023-05-08T03:07:40.717Z,36.00
2023-05-08T03:08:40.818Z,44.00
2023-05-08T03:09:40.959Z,44.00
2023-05-08T03:10:41.076Z,52.00
2023-05-08T03:11:41.196Z,60.00
2023-05-08T03:12:42.785Z,68.00
2023-05-08T03:13:41.603Z,76.00
2023-05-08T03:14:41.596Z,84.00
2023-05-08T03:15:41.815Z,92.00
2023-05-08T03:16:41.789Z,100.00
2023-05-08T03:17:41.942Z,112.00
2023-05-08T03:18:42.036Z,124.00
2023-05-08T03:19:42.182Z,136.00
2023-05-08T03:20:42.313Z,148.00
2023-05-08T03:21:42.423Z,164.00
2023-05-08T03:22:42.540Z,176.00
2023-05-08T03:23:42.679Z,192.00
2023-05-08T03:24:42.797Z,208.00
2023-05-08T03:25:42.910Z,228.00
2023-05-08T03:26:43.006Z,248.00
2023-05-08T03:27:43.165Z,268.00
2023-05-08T03:28:43.286Z,284.00
2023-05-08T03:29:43.442Z,312.00
2023-05-08T03:30:43.585Z,332.00
2023-05-08T03:31:43.912Z,356.00
2023-05-08T03:32:43.906Z,380.00
2023-05-08T03:33:43.978Z,408.00
2023-05-08T03:34:44.134Z,436.00
2023-05-08T03:35:44.223Z,464.00
2023-05-08T03:36:44.356Z,492.00
2023-05-08T03:37:44.486Z,524.00
2023-05-08T03:38:44.586Z,556.00
2023-05-08T03:39:44.746Z,588.00
2023-05-08T03:40:44.892Z,620.00
2023-05-08T03:41:45.003Z,656.00
2023-05-08T03:42:45.181Z,688.00
2023-05-08T03:43:45.251Z,724.00
2023-05-08T03:44:45.404Z,764.00
2023-05-08T03:45:45.506Z,804.00
2023-05-08T03:46:45.643Z,848.00
2023-05-08T03:47:45.786Z,888.00
2023-05-08T03:48:45.886Z,924.00
2023-05-08T03:49:46.032Z,956.00
2023-05-08T03:50:46.146Z,992.00
2023-05-08T03:51:46.263Z,1032.00
2023-05-08T03:52:46.416Z,1068.00
2023-05-08T03:53:46.508Z,1104.00
2023-05-08T03:54:46.623Z,1136.00
2023-05-08T03:55:46.757Z,1172.00
2023-05-08T03:56:46.863Z,1204.00
2023-05-08T03:57:46.992Z,1240.00
2023-05-08T03:58:47.102Z,1272.00
2023-05-08T03:59:47.241Z,1308.00
2023-05-08T04:00:47.357Z,1336.00
2023-05-08T04:01:47.547Z,1372.00
2023-05-08T04:02:47.769Z,1400.00
2023-05-08T04:03:47.877Z,1436.00
2023-05-08T04:04:47.960Z,1468.00
2023-05-08T04:05:48.080Z,1500.00
2023-05-08T04:06:50.514Z,1536.00
2023-05-08T04:07:48.350Z,1568.00
2023-05-08T04:08:48.456Z,1600.00
2023-05-08T04:09:48.597Z,1628.00
2023-05-08T04:10:48.704Z,1656.00
2023-05-08T04:11:48.821Z,1684.00
2023-05-08T04:12:48.970Z,1720.00
2023-05-08T04:13:49.057Z,1744.00
2023-05-08T04:14:49.186Z,1772.00
2023-05-08T04:15:49.296Z,1804.00
2023-05-08T04:16:49.465Z,1828.00
2023-05-08T04:17:49.653Z,1860.00
2023-05-08T04:18:49.652Z,1888.00
2023-05-08T04:19:49.779Z,1916.00
2023-05-08T04:20:50.858Z,1944.00
2023-05-08T04:21:50.085Z,1972.00
2023-05-08T04:22:50.214Z,1996.00
2023-05-08T04:23:50.364Z,2024.00
2023-05-08T04:24:50.515Z,2056.00
2023-05-08T04:25:50.666Z,2080.00
2023-05-08T04:26:50.799Z,2096.00
2023-05-08T04:27:50.948Z,2132.00
2023-05-08T04:28:51.077Z,2156.00
2023-05-08T04:29:51.246Z,2180.00
2023-05-08T04:30:51.373Z,2200.00
2023-05-08T04:31:51.630Z,2228.00
2023-05-08T04:32:51.662Z,2256.00
2023-05-08T04:33:51.756Z,2284.00
2023-05-08T04:34:51.909Z,2304.00
2023-05-08T04:35:52.039Z,2320.00
2023-05-08T04:36:52.163Z,2352.00
2023-05-08T04:37:52.269Z,2380.00
2023-05-08T04:38:52.395Z,2400.00
2023-05-08T04:39:52.534Z,2420.00
2023-05-08T04:40:52.687Z,2448.00
2023-05-08T04:41:52.862Z,2476.00
2023-05-08T04:42:53.067Z,2504.00
2023-05-08T04:43:54.036Z,2532.00
2023-05-08T04:44:53.280Z,2556.00
2023-05-08T04:45:53.452Z,2576.00
2023-05-08T04:46:53.517Z,2600.00
2023-05-08T04:47:53.684Z,2628.00
2023-05-08T04:48:53.755Z,2656.00
2023-05-08T04:49:53.870Z,2672.00
2023-05-08T04:50:54.027Z,2696.00
2023-05-08T04:51:54.096Z,2728.00
2023-05-08T04:52:54.304Z,2764.00
2023-05-08T04:53:54.330Z,2784.00
2023-05-08T04:54:54.458Z,2804.00
2023-05-08T04:55:54.563Z,2824.00
2023-05-08T04:56:54.674Z,2840.00
2023-05-08T04:57:54.873Z,2868.00
2023-05-08T04:58:54.907Z,2900.00
2023-05-08T04:59:55.019Z,2916.00
2023-05-08T05:00:55.123Z,2940.00
2023-05-08T05:01:55.270Z,2976.00
2023-05-08T05:02:55.392Z,2992.00
2023-05-08T05:03:55.533Z,3008.00
2023-05-08T05:04:55.680Z,3008.00
2023-05-08T05:05:55.780Z,3036.00
2023-05-08T05:06:55.952Z,3076.00
2023-05-08T05:07:56.041Z,3104.00
2023-05-08T05:08:56.153Z,3128.00
2023-05-08T05:09:56.436Z,3136.00
2023-05-08T05:10:56.411Z,3164.00
2023-05-08T05:11:58.048Z,3224.00
2023-05-08T05:12:56.708Z,3272.00
2023-05-08T05:13:56.754Z,3300.00
2023-05-08T05:14:56.914Z,3312.00
2023-05-08T05:15:57.036Z,3348.00
2023-05-08T05:16:57.068Z,3400.00
2023-05-08T05:17:57.228Z,3436.00
2023-05-08T05:18:57.282Z,3456.00
2023-05-08T05:19:57.380Z,3476.00
2023-05-08T05:20:57.485Z,3508.00
2023-05-08T05:21:57.593Z,3532.00
2023-05-08T05:22:57.740Z,3564.00
2023-05-08T05:23:57.779Z,3580.00
2023-05-08T05:24:57.897Z,3600.00
2023-05-08T05:25:57.983Z,3624.00
2023-05-08T05:26:58.090Z,3656.00
2023-05-08T05:27:58.164Z,3680.00
2023-05-08T05:28:58.249Z,3700.00
2023-05-08T05:29:58.385Z,3740.00
2023-05-08T05:30:58.535Z,3768.00
2023-05-08T05:31:58.845Z,3788.00
2023-05-08T05:32:58.762Z,3808.00
2023-05-08T05:33:58.852Z,3856.00
2023-05-08T05:34:58.940Z,3892.00
2023-05-08T05:36:08.721Z,3900.00
2023-05-08T05:37:01.836Z,3928.00
2023-05-08T05:37:59.235Z,3964.00
2023-05-08T05:38:59.332Z,4000.00
2023-05-08T05:39:59.448Z,4032.00
2023-05-08T05:40:59.530Z,4068.00
2023-05-08T05:41:59.833Z,4124.00
2023-05-08T05:42:59.800Z,4188.00
2023-05-08T05:43:59.856Z,4204.00
2023-05-08T05:44:59.951Z,4260.00
2023-05-08T05:46:00.048Z,4328.00
2023-05-08T05:47:00.275Z,4380.00
2023-05-08T05:48:00.424Z,4424.00
2023-05-08T05:49:00.383Z,4472.00
2023-05-08T05:50:00.471Z,4524.00
2023-05-08T05:51:00.558Z,4612.00
2023-05-08T05:52:00.653Z,4672.00
2023-05-08T05:53:00.745Z,4736.00
2023-05-08T05:54:00.835Z,4816.00
2023-05-08T05:55:00.954Z,4928.00
2023-05-08T05:56:01.015Z,5020.00
2023-05-08T05:57:01.131Z,5216.00
2023-05-08T05:58:01.228Z,5668.00
2023-05-08T05:59:01.327Z,12856.00
2023-05-08T06:00:01.413Z,21952.00
2023-05-08T06:01:01.490Z,20352.00
2023-05-08T06:02:01.647Z,16032.00
2023-05-08T06:03:01.870Z,15200.00
2023-05-08T06:04:01.956Z,14944.00
2023-05-08T06:05:01.910Z,14752.00
2023-05-08T06:06:01.991Z,14628.00
2023-05-08T06:07:02.045Z,14608.00
2023-05-08T06:08:02.148Z,14700.00
2023-05-08T06:09:02.156Z,14748.00
2023-05-08T06:10:02.239Z,14808.00
2023-05-08T06:11:02.281Z,15072.00
2023-05-08T06:12:02.342Z,15300.00
2023-05-08T06:13:02.463Z,15744.00
2023-05-08T06:14:02.470Z,16032.00
2023-05-08T06:15:02.541Z,16416.00
2023-05-08T06:16:02.577Z,16736.00
2023-05-08T06:17:02.750Z,16992.00
2023-05-08T06:18:02.861Z,17312.00
2023-05-08T06:19:02.858Z,17568.00
2023-05-08T06:20:02.915Z,17952.00
2023-05-08T06:21:02.970Z,18592.00
2023-05-08T06:22:03.006Z,19328.00
2023-05-08T06:23:03.141Z,20000.00
2023-05-08T06:24:03.251Z,21504.00
2023-05-08T06:25:03.339Z,25248.00
2023-05-08T06:26:03.367Z,29152.00
2023-05-08T06:27:03.465Z,32256.00
2023-05-08T06:28:03.520Z,33024.00
2023-05-08T06:29:03.529Z,33152.00
2023-05-08T06:30:03.557Z,33952.00
2023-05-08T06:31:03.683Z,35872.00
2023-05-08T06:32:03.610Z,37664.00
2023-05-08T06:33:03.765Z,37408.00
2023-05-08T06:34:03.801Z,37056.00
2023-05-08T06:35:03.867Z,37216.00
2023-05-08T06:36:03.886Z,37728.00
2023-05-08T06:37:03.906Z,38080.00
2023-05-08T06:38:03.920Z,39552.00
2023-05-08T06:39:03.947Z,41792.00
2023-05-08T06:40:12.125Z,42656.00
2023-05-08T06:41:04.992Z,43872.00
2023-05-08T06:42:04.001Z,45376.00
2023-05-08T06:43:04.123Z,44256.00
2023-05-08T06:44:04.153Z,43520.00
2023-05-08T06:45:04.223Z,44640.00
2023-05-08T06:46:04.286Z,45568.00
2023-05-08T06:47:04.253Z,45824.00
2023-05-08T06:48:04.281Z,47008.00
2023-05-08T06:49:04.282Z,47296.00
2023-05-08T06:50:04.293Z,48960.00
2023-05-08T06:51:04.310Z,49824.00
2023-05-08T06:52:04.309Z,50592.00
2023-05-08T06:53:04.321Z,52320.00
2023-05-08T06:54:04.314Z,53888.00
2023-05-08T06:55:04.338Z,55360.00
2023-05-08T06:56:04.342Z,55392.00
2023-05-08T06:57:04.380Z,53920.00
2023-05-08T06:58:04.397Z,55392.00
2023-05-08T06:59:08.443Z,56192.00
2023-05-08T07:00:04.514Z,56864.00
2023-05-08T07:01:04.497Z,56352.00
2023-05-08T07:02:04.592Z,54720.00
2023-05-08T07:03:04.603Z,55360.00
2023-05-08T07:04:04.609Z,57024.00
2023-05-08T07:05:04.696Z,59264.00
2023-05-08T07:06:04.577Z,60768.00
2023-05-08T07:07:04.670Z,60384.00
2023-05-08T07:08:04.673Z,60224.00
2023-05-08T07:09:04.680Z,61792.00
2023-05-08T07:10:05.974Z,63104.00
2023-05-08T07:11:04.705Z,62848.00
2023-05-08T07:12:04.701Z,62784.00
2023-05-08T07:13:04.841Z,61408.00
2023-05-08T07:14:04.853Z,61472.00
2023-05-08T07:15:14.179Z,61504.00
2023-05-08T07:16:05.875Z,61824.00
2023-05-08T07:17:04.852Z,63424.00
2023-05-08T07:18:04.899Z,63520.00
2023-05-08T07:19:04.909Z,64448.00
2023-05-08T07:20:04.901Z,64832.00
2023-05-08T07:21:04.904Z,65248.00
2023-05-08T07:22:05.012Z,63744.00
2023-05-08T07:23:04.992Z,63360.00
2023-05-08T07:24:04.992Z,64064.00
2023-05-08T07:25:05.004Z,64640.00
2023-05-08T07:26:05.004Z,63840.00
2023-05-08T07:27:04.990Z,64096.00
2023-05-08T07:28:04.997Z,65024.00
2023-05-08T07:29:04.993Z,66208.00
2023-05-08T07:30:05.045Z,65248.00
2023-05-08T07:31:05.092Z,63296.00
2023-05-08T07:32:05.102Z,61760.00
2023-05-08T07:33:05.110Z,61696.00
2023-05-08T07:34:05.183Z,61472.00
2023-05-08T07:35:05.196Z,62080.00
2023-05-08T07:36:05.174Z,62816.00
2023-05-08T07:37:05.167Z,61888.00
2023-05-08T07:38:05.208Z,62240.00
2023-05-08T07:39:05.201Z,63456.00
2023-05-08T07:40:05.204Z,64064.00
2023-05-08T07:41:05.231Z,65440.00
2023-05-08T07:42:05.194Z,65920.00
2023-05-08T07:43:05.218Z,67488.00
2023-05-08T07:44:05.181Z,68384.00
2023-05-08T07:45:05.187Z,69344.00
2023-05-08T07:46:05.172Z,67712.00
2023-05-08T07:47:05.267Z,68352.00
2023-05-08T07:48:05.219Z,68480.00
2023-05-08T07:49:05.182Z,68320.00
2023-05-08T07:50:05.183Z,69056.00
2023-05-08T07:51:05.183Z,67392.00
2023-05-08T07:52:05.155Z,68480.00
2023-05-08T07:53:05.152Z,69920.00
2023-05-08T07:54:05.126Z,70848.00
2023-05-08T07:55:05.132Z,70944.00
2023-05-08T07:56:05.175Z,70976.00
2023-05-08T07:57:05.163Z,72480.00
2023-05-08T07:58:05.135Z,72672.00
2023-05-08T07:59:05.131Z,73536.00
2023-05-08T08:00:05.124Z,74464.00
2023-05-08T08:01:05.106Z,73440.00
2023-05-08T08:02:05.121Z,72736.00
2023-05-08T08:03:05.167Z,73792.00
2023-05-08T08:04:05.213Z,73408.00
2023-05-08T08:05:05.167Z,74144.00
2023-05-08T08:06:05.144Z,74048.00
2023-05-08T08:07:05.133Z,71968.00
2023-05-08T08:08:05.111Z,72960.00
2023-05-08T08:09:05.089Z,73472.00
2023-05-08T08:10:05.092Z,74912.00
2023-05-08T08:11:05.131Z,77184.00
2023-05-08T08:12:05.062Z,77600.00
2023-05-08T08:13:05.097Z,76672.00
2023-05-08T08:14:05.085Z,78464.00
2023-05-08T08:15:05.072Z,78560.00
2023-05-08T08:16:05.031Z,80928.00
2023-05-08T08:17:05.050Z,82496.00
2023-05-08T08:18:05.034Z,80128.00
2023-05-08T08:19:04.973Z,81696.00
2023-05-08T08:20:04.971Z,80096.00
2023-05-08T08:21:04.947Z,81952.00
2023-05-08T08:22:04.917Z,82144.00
2023-05-08T08:23:04.881Z,82464.00
2023-05-08T08:24:04.878Z,80640.00
2023-05-08T08:25:04.807Z,76800.00
2023-05-08T08:26:04.798Z,76320.00
2023-05-08T08:27:04.820Z,75680.00
2023-05-08T08:28:04.801Z,74496.00
2023-05-08T08:29:04.785Z,77472.00
2023-05-08T08:30:15.178Z,82080.00
2023-05-08T08:31:05.729Z,82624.00
2023-05-08T08:32:04.670Z,80384.00
2023-05-08T08:33:04.645Z,80768.00
2023-05-08T08:34:04.587Z,79872.00
2023-05-08T08:35:04.566Z,78208.00
2023-05-08T08:36:04.554Z,84320.00
2023-05-08T08:37:05.806Z,83200.00
2023-05-08T08:38:04.541Z,83424.00
2023-05-08T08:39:04.527Z,85504.00
2023-05-08T08:40:04.503Z,87136.00
2023-05-08T08:41:04.464Z,87296.00
2023-05-08T08:42:04.496Z,88800.00
2023-05-08T08:43:04.459Z,83712.00
2023-05-08T08:44:04.435Z,83136.00
2023-05-08T08:45:04.435Z,83808.00
2023-05-08T08:46:04.471Z,82688.00
2023-05-08T08:47:04.409Z,80672.00
2023-05-08T08:48:04.419Z,80640.00
2023-05-08T08:49:04.369Z,79712.00
2023-05-08T08:50:04.324Z,81888.00
2023-05-08T08:51:04.311Z,80256.00
2023-05-08T08:52:04.250Z,79008.00
2023-05-08T08:53:04.199Z,83296.00
2023-05-08T08:54:04.191Z,84192.00
2023-05-08T08:55:04.137Z,84832.00
2023-05-08T08:56:04.104Z,86528.00
2023-05-08T08:57:04.068Z,88640.00
2023-05-08T08:58:04.065Z,89056.00
2023-05-08T08:59:04.015Z,89568.00
2023-05-08T09:00:03.995Z,90080.00
2023-05-08T09:01:04.020Z,86560.00
2023-05-08T09:02:03.932Z,86592.00
2023-05-08T09:03:04.035Z,86336.00
2023-05-08T09:04:03.998Z,83392.00
2023-05-08T09:05:03.871Z,86240.00
2023-05-08T09:06:03.893Z,87424.00
2023-05-08T09:07:03.807Z,85088.00
2023-05-08T09:08:03.796Z,87552.00
2023-05-08T09:10:03.709Z,87136.00
2023-05-08T09:11:03.661Z,85952.00
2023-05-08T09:12:03.613Z,83424.00
2023-05-08T09:13:03.600Z,80544.00
2023-05-08T09:14:03.579Z,80160.00
2023-05-08T09:15:03.574Z,75840.00
2023-05-08T09:16:03.516Z,78912.00
2023-05-08T09:17:03.445Z,79296.00
2023-05-08T09:18:03.524Z,78976.00
2023-05-08T09:19:04.452Z,80544.00
2023-05-08T09:20:03.282Z,82848.00
2023-05-08T09:21:03.270Z,82368.00
2023-05-08T09:22:03.220Z,83936.00
2023-05-08T09:23:03.220Z,84192.00
2023-05-08T09:24:03.171Z,86944.00
2023-05-08T09:25:03.176Z,86176.00
2023-05-08T09:26:03.161Z,85920.00
2023-05-08T09:27:03.128Z,84544.00
2023-05-08T09:28:03.041Z,83392.00
2023-05-08T09:29:02.982Z,79424.00
2023-05-08T09:30:02.967Z,77856.00
2023-05-08T09:31:02.919Z,76416.00
2023-05-08T09:32:02.903Z,80224.00
2023-05-08T09:33:02.929Z,80320.00
2023-05-08T09:34:02.775Z,80448.00
2023-05-08T09:35:02.749Z,79360.00
2023-05-08T09:36:02.681Z,81408.00
2023-05-08T09:37:02.830Z,78976.00
2023-05-08T09:38:02.548Z,77152.00
2023-05-08T09:39:02.493Z,80480.00
2023-05-08T09:40:02.433Z,82240.00
2023-05-08T09:41:02.449Z,82080.00
2023-05-08T09:42:02.428Z,81408.00
2023-05-08T09:43:02.862Z,82432.00
2023-05-08T09:44:02.373Z,79296.00
2023-05-08T09:45:03.240Z,82848.00
2023-05-08T09:46:02.511Z,85856.00
2023-05-08T09:47:02.225Z,85536.00
2023-05-08T09:48:02.293Z,87008.00
2023-05-08T09:49:02.074Z,89120.00
2023-05-08T09:50:02.042Z,87296.00
2023-05-08T09:51:01.956Z,97376.00
2023-05-08T09:52:01.914Z,93600.00
2023-05-08T09:53:01.838Z,88288.00
2023-05-08T09:54:01.765Z,98080.00
2023-05-08T09:55:01.663Z,89536.00
2023-05-08T09:56:01.629Z,87936.00
2023-05-08T09:57:01.518Z,85760.00
2023-05-08T09:58:01.518Z,89792.00
2023-05-08T09:59:01.439Z,87040.00
2023-05-08T10:00:01.364Z,90208.00
2023-05-08T10:01:01.302Z,91872.00
2023-05-08T10:02:01.221Z,93920.00
2023-05-08T10:03:01.242Z,93472.00
2023-05-08T10:04:01.146Z,96800.00
2023-05-08T10:05:00.984Z,98976.00
2023-05-08T10:06:00.908Z,98560.00
2023-05-08T10:07:00.849Z,96704.00
2023-05-08T10:08:00.772Z,94240.00
2023-05-08T10:09:00.718Z,93184.00
2023-05-08T10:10:00.687Z,88448.00
2023-05-08T10:11:00.633Z,97536.00
2023-05-08T10:12:00.565Z,94720.00
2023-05-08T10:13:00.520Z,93088.00
2023-05-08T10:14:00.492Z,92064.00
2023-05-08T10:15:00.439Z,93984.00
2023-05-08T10:16:00.357Z,93760.00
2023-05-08T10:17:00.334Z,90688.00
2023-05-08T10:18:00.317Z,93760.00
2023-05-08T10:19:00.219Z,94272.00
2023-05-08T10:20:00.164Z,94720.00
2023-05-08T10:21:00.109Z,96928.00
2023-05-08T10:22:00.035Z,93472.00
2023-05-08T10:23:00.074Z,95744.00
2023-05-08T10:23:59.932Z,102016.00
2023-05-08T10:24:59.877Z,99168.00
2023-05-08T10:25:59.813Z,91616.00
2023-05-08T10:27:06.894Z,99296.00
2023-05-08T10:28:00.670Z,98688.00
2023-05-08T10:28:59.665Z,97184.00
2023-05-08T10:29:59.573Z,101408.00
2023-05-08T10:30:59.575Z,92128.00
2023-05-08T10:31:59.526Z,91904.00
2023-05-08T10:32:59.475Z,90112.00
2023-05-08T10:33:59.391Z,91552.00
2023-05-08T10:34:59.318Z,86112.00
2023-05-08T10:35:59.270Z,90688.00
2023-05-08T10:36:59.184Z,87648.00
2023-05-08T10:37:59.105Z,91008.00
2023-05-08T10:38:59.015Z,91072.00
2023-05-08T10:39:58.944Z,88640.00
2023-05-08T10:40:58.871Z,87616.00
2023-05-08T10:41:58.820Z,88736.00
2023-05-08T10:42:58.784Z,95328.00
2023-05-08T10:44:00.582Z,88192.00
2023-05-08T10:44:58.684Z,97440.00
2023-05-08T10:45:58.625Z,98560.00
2023-05-08T10:46:58.491Z,91584.00
2023-05-08T10:47:58.491Z,93376.00
2023-05-08T10:48:58.398Z,96640.00
2023-05-08T10:49:58.321Z,93696.00
2023-05-08T10:50:58.239Z,89664.00
2023-05-08T10:51:58.190Z,95584.00
2023-05-08T10:52:58.129Z,91232.00
2023-05-08T10:53:58.046Z,93600.00
2023-05-08T10:54:57.973Z,96000.00
2023-05-08T10:55:57.948Z,89920.00
2023-05-08T10:56:57.896Z,91488.00
2023-05-08T10:57:57.824Z,94592.00
2023-05-08T10:58:57.811Z,91168.00
2023-05-08T10:59:57.698Z,92288.00
2023-05-08T11:00:57.741Z,96032.00
2023-05-08T11:01:57.645Z,95776.00
2023-05-08T11:02:57.557Z,97472.00
2023-05-08T11:03:57.737Z,95968.00
2023-05-08T11:04:57.446Z,93984.00
2023-05-08T11:05:57.373Z,93792.00
2023-05-08T11:06:57.295Z,92192.00
2023-05-08T11:07:57.261Z,89888.00
2023-05-08T11:08:58.449Z,94848.00
2023-05-08T11:09:57.184Z,98336.00
2023-05-08T11:10:57.116Z,93952.00
2023-05-08T11:11:57.052Z,102240.00
2023-05-08T11:12:57.020Z,98048.00
2023-05-08T11:13:56.934Z,98688.00
2023-05-08T11:14:56.877Z,99456.00
2023-05-08T11:15:56.933Z,97280.00
2023-05-08T11:16:56.821Z,96384.00
2023-05-08T11:17:56.885Z,93888.00
2023-05-08T11:18:56.673Z,92224.00
2023-05-08T11:19:56.639Z,94240.00
2023-05-08T11:20:56.578Z,94688.00
2023-05-08T11:21:56.558Z,91040.00
2023-05-08T11:22:56.497Z,91264.00
2023-05-08T11:23:56.460Z,88544.00
2023-05-08T11:24:56.396Z,93760.00
2023-05-08T11:25:56.326Z,90976.00
2023-05-08T11:26:56.257Z,94720.00
2023-05-08T11:27:56.189Z,95744.00
2023-05-08T11:28:56.136Z,94752.00
2023-05-08T11:29:56.088Z,94048.00
2023-05-08T11:30:56.050Z,94944.00
2023-05-08T11:31:56.089Z,91136.00
2023-05-08T11:32:56.142Z,70400.00
2023-05-08T11:33:56.000Z,37888.00
2023-05-08T11:34:55.938Z,15036.00
2023-05-08T11:35:55.991Z,11088.00
2023-05-08T11:36:55.882Z,10028.00
2023-05-08T11:37:55.849Z,9532.00
2023-05-08T11:38:56.386Z,9232.00
2023-05-08T11:39:55.775Z,9044.00
2023-05-08T11:40:55.722Z,8916.00
2023-05-08T11:41:55.672Z,8792.00
2023-05-08T11:42:55.616Z,8728.00
2023-05-08T11:43:55.570Z,8644.00
2023-05-08T11:44:55.521Z,8560.00
2023-05-08T11:45:55.467Z,8516.00
2023-05-08T11:46:55.453Z,8444.00
2023-05-08T11:47:55.430Z,8376.00
2023-05-08T11:48:55.383Z,8296.00
2023-05-08T11:49:55.349Z,8260.00
2023-05-08T11:50:55.295Z,8152.00
2023-05-08T11:51:55.270Z,8088.00
2023-05-08T11:52:55.212Z,8044.00
2023-05-08T11:53:55.148Z,7980.00
2023-05-08T11:54:55.103Z,7948.00
2023-05-08T11:55:55.080Z,7892.00
2023-05-08T11:56:55.050Z,7844.00
2023-05-08T11:57:54.979Z,7804.00
2023-05-08T11:58:54.923Z,7720.00
2023-05-08T11:59:54.888Z,7684.00
2023-05-08T12:00:54.900Z,7628.00
2023-05-08T12:02:54.863Z,7560.00
2023-05-08T12:03:55.058Z,7524.00
2023-05-08T12:04:54.809Z,7480.00
2023-05-08T12:05:54.713Z,7448.00
2023-05-08T12:06:54.648Z,7420.00
2023-05-08T12:07:54.597Z,7404.00
2023-05-08T12:08:54.547Z,7376.00
2023-05-08T12:09:54.499Z,7352.00
2023-05-08T12:10:54.462Z,7340.00
2023-05-08T12:11:54.424Z,7320.00
2023-05-08T12:12:54.365Z,7312.00
2023-05-08T12:13:54.310Z,7296.00
2023-05-08T12:14:54.285Z,7276.00
2023-05-08T12:15:54.224Z,7276.00